sensor_id;sensor_type;location;lat;lon;timestamp;P1;durP1;ratioP1;P2;durP2;ratioP2
2848;SDS011;59355;52.416;13.412;2022-08-04T00:00:26;7.30;;;6.67;;
2848;SDS011;59355;52.416;13.412;2022-08-04T00:05:46;9.10;;;7.10;;
2848;SDS011;59355;52.416;13.412;2022-08-04T00:10:54;8.37;;;7.50;;
2848;SDS011;59355;52.416;13.412;2022-08-04T00:13:21;10.60;;;7.10;;
2848;SDS011;59355;52.416;13.412;2022-08-04T00:15:56;13.37;;;7.23;;
2848;SDS011;59355;52.416;13.412;2022-08-04T00:18:25;7.37;;;6.67;;
2848;SDS011;59355;52.416;13.412;2022-08-04T00:20:53;8.20;;;7.50;;
2848;SDS011;59355;52.416;13.412;2022-08-04T00:23:20;7.30;;;6.67;;
2848;SDS011;59355;52.416;13.412;2022-08-04T00:25:47;8.40;;;7.60;;
2848;SDS011;59355;52.416;13.412;2022-08-04T00:28:14;8.50;;;7.70;;
2848;SDS011;59355;52.416;13.412;2022-08-04T00:30:41;8.50;;;7.03;;
2848;SDS011;59355;52.416;13.412;2022-08-04T00:33:07;8.20;;;7.40;;
2848;SDS011;59355;52.416;13.412;2022-08-04T00:35:34;8.17;;;7.47;;
2848;SDS011;59355;52.416;13.412;2022-08-04T00:38:01;7.30;;;6.67;;
2848;SDS011;59355;52.416;13.412;2022-08-04T00:40:35;7.90;;;7.20;;
2848;SDS011;59355;52.416;13.412;2022-08-04T00:43:23;8.00;;;7.20;;
2848;SDS011;59355;52.416;13.412;2022-08-04T00:46:11;8.63;;;7.00;;
2848;SDS011;59355;52.416;13.412;2022-08-04T00:51:46;8.47;;;7.67;;
2848;SDS011;59355;52.416;13.412;2022-08-04T00:57:02;7.90;;;7.20;;
2848;SDS011;59355;52.416;13.412;2022-08-04T00:59:33;8.87;;;8.03;;
2848;SDS011;59355;52.416;13.412;2022-08-04T01:02:08;7.93;;;7.23;;
2848;SDS011;59355;52.416;13.412;2022-08-04T01:04:49;8.00;;;7.30;;
2848;SDS011;59355;52.416;13.412;2022-08-04T01:09:57;9.37;;;8.57;;
2848;SDS011;59355;52.416;13.412;2022-08-04T01:15:18;8.30;;;7.60;;
2848;SDS011;59355;52.416;13.412;2022-08-04T01:20:24;8.60;;;7.77;;
2848;SDS011;59355;52.416;13.412;2022-08-04T01:25:41;8.37;;;7.70;;
2848;SDS011;59355;52.416;13.412;2022-08-04T01:28:27;10.57;;;7.80;;
2848;SDS011;59355;52.416;13.412;2022-08-04T01:31:01;8.73;;;7.93;;
2848;SDS011;59355;52.416;13.412;2022-08-04T01:33:31;8.13;;;7.33;;
2848;SDS011;59355;52.416;13.412;2022-08-04T01:36:02;8.20;;;7.50;;
2848;SDS011;59355;52.416;13.412;2022-08-04T01:38:33;7.80;;;7.10;;
2848;SDS011;59355;52.416;13.412;2022-08-04T01:41:04;9.40;;;7.50;;
2848;SDS011;59355;52.416;13.412;2022-08-04T01:43:32;8.73;;;8.00;;
2848;SDS011;59355;52.416;13.412;2022-08-04T01:45:59;7.97;;;7.20;;
2848;SDS011;59355;52.416;13.412;2022-08-04T01:48:26;9.00;;;7.93;;
2848;SDS011;59355;52.416;13.412;2022-08-04T01:53:57;9.57;;;8.63;;
2848;SDS011;59355;52.416;13.412;2022-08-04T01:56:23;8.57;;;7.87;;
2848;SDS011;59355;52.416;13.412;2022-08-04T01:58:50;8.50;;;7.70;;
2848;SDS011;59355;52.416;13.412;2022-08-04T02:01:16;8.97;;;8.07;;
2848;SDS011;59355;52.416;13.412;2022-08-04T02:03:43;7.50;;;6.80;;
2848;SDS011;59355;52.416;13.412;2022-08-04T02:11:22;8.53;;;7.73;;
2848;SDS011;59355;52.416;13.412;2022-08-04T02:13:53;8.27;;;7.47;;
2848;SDS011;59355;52.416;13.412;2022-08-04T02:16:32;8.90;;;8.10;;
2848;SDS011;59355;52.416;13.412;2022-08-04T02:19:23;8.90;;;8.00;;
2848;SDS011;59355;52.416;13.412;2022-08-04T02:21:56;8.40;;;7.70;;
2848;SDS011;59355;52.416;13.412;2022-08-04T02:24:24;8.83;;;8.03;;
2848;SDS011;59355;52.416;13.412;2022-08-04T02:26:52;9.07;;;7.80;;
2848;SDS011;59355;52.416;13.412;2022-08-04T02:29:33;8.77;;;7.97;;
2848;SDS011;59355;52.416;13.412;2022-08-04T02:32:06;9.27;;;8.17;;
2848;SDS011;59355;52.416;13.412;2022-08-04T02:34:42;8.70;;;7.90;;
2848;SDS011;59355;52.416;13.412;2022-08-04T02:37:19;9.47;;;8.67;;
2848;SDS011;59355;52.416;13.412;2022-08-04T02:39:46;9.73;;;8.70;;
2848;SDS011;59355;52.416;13.412;2022-08-04T02:42:19;9.60;;;8.60;;
2848;SDS011;59355;52.416;13.412;2022-08-04T02:44:48;8.63;;;7.93;;
2848;SDS011;59355;52.416;13.412;2022-08-04T02:47:16;9.07;;;8.17;;
2848;SDS011;59355;52.416;13.412;2022-08-04T02:49:45;9.00;;;8.20;;
2848;SDS011;59355;52.416;13.412;2022-08-04T02:52:12;9.33;;;8.53;;
2848;SDS011;59355;52.416;13.412;2022-08-04T02:54:39;8.90;;;8.10;;
2848;SDS011;59355;52.416;13.412;2022-08-04T02:57:10;7.97;;;7.20;;
2848;SDS011;59355;52.416;13.412;2022-08-04T03:05:17;9.50;;;8.70;;
2848;SDS011;59355;52.416;13.412;2022-08-04T03:07:58;9.80;;;9.00;;
2848;SDS011;59355;52.416;13.412;2022-08-04T03:13:37;10.07;;;9.17;;
2848;SDS011;59355;52.416;13.412;2022-08-04T03:22:47;9.40;;;8.43;;
2848;SDS011;59355;52.416;13.412;2022-08-04T03:25:35;9.80;;;8.90;;
2848;SDS011;59355;52.416;13.412;2022-08-04T03:28:33;14.93;;;9.17;;
2848;SDS011;59355;52.416;13.412;2022-08-04T03:31:26;10.23;;;9.23;;
2848;SDS011;59355;52.416;13.412;2022-08-04T03:34:13;9.23;;;8.40;;
2848;SDS011;59355;52.416;13.412;2022-08-04T03:37:07;10.73;;;9.73;;
2848;SDS011;59355;52.416;13.412;2022-08-04T03:53:51;10.53;;;9.00;;
2848;SDS011;59355;52.416;13.412;2022-08-04T03:59:53;9.23;;;8.40;;
2848;SDS011;59355;52.416;13.412;2022-08-04T04:05:34;9.60;;;8.80;;
2848;SDS011;59355;52.416;13.412;2022-08-04T04:08:24;9.63;;;8.83;;
2848;SDS011;59355;52.416;13.412;2022-08-04T04:13:49;9.87;;;8.30;;
2848;SDS011;59355;52.416;13.412;2022-08-04T04:16:37;9.70;;;8.90;;
2848;SDS011;59355;52.416;13.412;2022-08-04T04:25:03;10.27;;;9.20;;
2848;SDS011;59355;52.416;13.412;2022-08-04T04:31:02;9.87;;;8.97;;
2848;SDS011;59355;52.416;13.412;2022-08-04T04:36:43;9.33;;;8.53;;
2848;SDS011;59355;52.416;13.412;2022-08-04T04:39:31;9.20;;;8.40;;
2848;SDS011;59355;52.416;13.412;2022-08-04T04:44:52;10.97;;;10.00;;
2848;SDS011;59355;52.416;13.412;2022-08-04T04:47:35;11.93;;;10.73;;
2848;SDS011;59355;52.416;13.412;2022-08-04T04:50:31;11.83;;;10.53;;
2848;SDS011;59355;52.416;13.412;2022-08-04T04:53:05;10.47;;;9.50;;
2848;SDS011;59355;52.416;13.412;2022-08-04T04:55:47;10.00;;;9.30;;
2848;SDS011;59355;52.416;13.412;2022-08-04T04:58:20;10.80;;;9.90;;
2848;SDS011;59355;52.416;13.412;2022-08-04T05:00:51;10.63;;;9.60;;
2848;SDS011;59355;52.416;13.412;2022-08-04T05:03:38;11.00;;;10.10;;
2848;SDS011;59355;52.416;13.412;2022-08-04T05:06:42;10.90;;;10.00;;
2848;SDS011;59355;52.416;13.412;2022-08-04T05:09:45;11.73;;;10.73;;
2848;SDS011;59355;52.416;13.412;2022-08-04T05:15:15;11.27;;;10.30;;
2848;SDS011;59355;52.416;13.412;2022-08-04T05:17:45;12.40;;;11.40;;
2848;SDS011;59355;52.416;13.412;2022-08-04T05:20:23;11.27;;;10.40;;
2848;SDS011;59355;52.416;13.412;2022-08-04T05:23:01;11.73;;;10.83;;
2848;SDS011;59355;52.416;13.412;2022-08-04T05:25:40;11.13;;;10.23;;
2848;SDS011;59355;52.416;13.412;2022-08-04T05:28:17;11.40;;;10.50;;
2848;SDS011;59355;52.416;13.412;2022-08-04T05:30:50;12.53;;;11.23;;
2848;SDS011;59355;52.416;13.412;2022-08-04T05:33:24;10.13;;;9.23;;
2848;SDS011;59355;52.416;13.412;2022-08-04T05:35:58;11.47;;;10.57;;
2848;SDS011;59355;52.416;13.412;2022-08-04T05:38:30;9.37;;;8.57;;
2848;SDS011;59355;52.416;13.412;2022-08-04T05:41:00;9.97;;;9.23;;
2848;SDS011;59355;52.416;13.412;2022-08-04T05:43:28;10.57;;;9.67;;
2848;SDS011;59355;52.416;13.412;2022-08-04T05:45:55;10.33;;;9.50;;
2848;SDS011;59355;52.416;13.412;2022-08-04T05:48:22;9.83;;;9.13;;
2848;SDS011;59355;52.416;13.412;2022-08-04T05:50:49;10.30;;;9.40;;
2848;SDS011;59355;52.416;13.412;2022-08-04T05:53:16;9.70;;;9.00;;
2848;SDS011;59355;52.416;13.412;2022-08-04T05:55:44;9.60;;;8.90;;
2848;SDS011;59355;52.416;13.412;2022-08-04T05:58:11;10.30;;;9.30;;
2848;SDS011;59355;52.416;13.412;2022-08-04T06:00:41;9.73;;;9.03;;
2848;SDS011;59355;52.416;13.412;2022-08-04T06:03:08;9.10;;;8.40;;
2848;SDS011;59355;52.416;13.412;2022-08-04T06:05:36;11.93;;;9.30;;
2848;SDS011;59355;52.416;13.412;2022-08-04T06:08:06;9.33;;;8.53;;
2848;SDS011;59355;52.416;13.412;2022-08-04T06:10:33;10.00;;;9.10;;
2848;SDS011;59355;52.416;13.412;2022-08-04T06:13:02;9.40;;;8.50;;
2848;SDS011;59355;52.416;13.412;2022-08-04T06:15:34;7.73;;;7.23;;
2848;SDS011;59355;52.416;13.412;2022-08-04T06:18:04;9.40;;;8.60;;
2848;SDS011;59355;52.416;13.412;2022-08-04T06:20:32;9.80;;;8.93;;
2848;SDS011;59355;52.416;13.412;2022-08-04T06:23:06;12.73;;;9.00;;
2848;SDS011;59355;52.416;13.412;2022-08-04T06:25:45;8.73;;;8.07;;
2848;SDS011;59355;52.416;13.412;2022-08-04T06:28:14;8.73;;;7.93;;
2848;SDS011;59355;52.416;13.412;2022-08-04T06:30:42;7.83;;;7.23;;
2848;SDS011;59355;52.416;13.412;2022-08-04T06:33:14;9.33;;;8.63;;
2848;SDS011;59355;52.416;13.412;2022-08-04T06:35:52;8.33;;;7.47;;
2848;SDS011;59355;52.416;13.412;2022-08-04T06:38:23;6.90;;;6.40;;
2848;SDS011;59355;52.416;13.412;2022-08-04T06:40:50;7.67;;;7.07;;
2848;SDS011;59355;52.416;13.412;2022-08-04T06:43:17;7.90;;;7.30;;
2848;SDS011;59355;52.416;13.412;2022-08-04T06:45:44;9.10;;;8.33;;
2848;SDS011;59355;52.416;13.412;2022-08-04T06:48:12;7.57;;;6.97;;
2848;SDS011;59355;52.416;13.412;2022-08-04T06:50:41;8.20;;;7.53;;
2848;SDS011;59355;52.416;13.412;2022-08-04T06:53:12;7.10;;;6.60;;
2848;SDS011;59355;52.416;13.412;2022-08-04T06:55:39;9.17;;;6.80;;
2848;SDS011;59355;52.416;13.412;2022-08-04T06:58:07;7.17;;;6.57;;
2848;SDS011;59355;52.416;13.412;2022-08-04T07:00:35;6.67;;;5.90;;
2848;SDS011;59355;52.416;13.412;2022-08-04T07:03:02;6.77;;;6.17;;
2848;SDS011;59355;52.416;13.412;2022-08-04T07:05:28;6.83;;;6.30;;
2848;SDS011;59355;52.416;13.412;2022-08-04T07:07:55;8.50;;;6.93;;
2848;SDS011;59355;52.416;13.412;2022-08-04T07:10:23;7.80;;;6.80;;
2848;SDS011;59355;52.416;13.412;2022-08-04T07:12:49;7.00;;;6.30;;
2848;SDS011;59355;52.416;13.412;2022-08-04T07:15:16;6.50;;;5.90;;
2848;SDS011;59355;52.416;13.412;2022-08-04T07:17:43;6.60;;;6.00;;
2848;SDS011;59355;52.416;13.412;2022-08-04T07:20:10;6.33;;;5.80;;
2848;SDS011;59355;52.416;13.412;2022-08-04T07:22:36;6.40;;;5.90;;
2848;SDS011;59355;52.416;13.412;2022-08-04T07:25:07;6.03;;;5.30;;
2848;SDS011;59355;52.416;13.412;2022-08-04T07:27:34;11.03;;;5.40;;
2848;SDS011;59355;52.416;13.412;2022-08-04T07:30:00;6.17;;;5.60;;
2848;SDS011;59355;52.416;13.412;2022-08-04T07:32:27;5.90;;;5.40;;
2848;SDS011;59355;52.416;13.412;2022-08-04T07:34:54;5.23;;;4.83;;
2848;SDS011;59355;52.416;13.412;2022-08-04T07:37:21;7.73;;;5.50;;
2848;SDS011;59355;52.416;13.412;2022-08-04T07:39:47;6.53;;;5.90;;
2848;SDS011;59355;52.416;13.412;2022-08-04T07:42:13;5.73;;;5.23;;
2848;SDS011;59355;52.416;13.412;2022-08-04T07:44:43;5.30;;;4.80;;
2848;SDS011;59355;52.416;13.412;2022-08-04T07:47:10;5.00;;;4.60;;
2848;SDS011;59355;52.416;13.412;2022-08-04T07:49:37;5.03;;;4.63;;
2848;SDS011;59355;52.416;13.412;2022-08-04T07:52:03;4.77;;;4.33;;
2848;SDS011;59355;52.416;13.412;2022-08-04T07:54:32;5.93;;;5.40;;
2848;SDS011;59355;52.416;13.412;2022-08-04T07:56:58;6.67;;;6.07;;
2848;SDS011;59355;52.416;13.412;2022-08-04T07:59:25;6.53;;;5.83;;
2848;SDS011;59355;52.416;13.412;2022-08-04T08:01:52;7.20;;;4.77;;
2848;SDS011;59355;52.416;13.412;2022-08-04T08:04:18;5.53;;;5.13;;
2848;SDS011;59355;52.416;13.412;2022-08-04T08:06:45;6.00;;;5.50;;
2848;SDS011;59355;52.416;13.412;2022-08-04T08:09:12;5.73;;;5.23;;
2848;SDS011;59355;52.416;13.412;2022-08-04T08:11:40;7.07;;;5.40;;
2848;SDS011;59355;52.416;13.412;2022-08-04T08:14:06;6.00;;;5.47;;
2848;SDS011;59355;52.416;13.412;2022-08-04T08:16:36;8.33;;;6.83;;
2848;SDS011;59355;52.416;13.412;2022-08-04T08:19:03;5.23;;;4.83;;
2848;SDS011;59355;52.416;13.412;2022-08-04T08:21:30;5.90;;;5.40;;
2848;SDS011;59355;52.416;13.412;2022-08-04T08:23:56;5.90;;;5.50;;
2848;SDS011;59355;52.416;13.412;2022-08-04T08:26:23;7.53;;;6.30;;
2848;SDS011;59355;52.416;13.412;2022-08-04T08:28:49;5.33;;;4.83;;
2848;SDS011;59355;52.416;13.412;2022-08-04T08:31:16;5.60;;;5.10;;
2848;SDS011;59355;52.416;13.412;2022-08-04T08:33:42;6.70;;;5.40;;
2848;SDS011;59355;52.416;13.412;2022-08-04T08:36:16;7.10;;;5.70;;
2848;SDS011;59355;52.416;13.412;2022-08-04T08:38:44;5.63;;;5.23;;
2848;SDS011;59355;52.416;13.412;2022-08-04T08:44:00;5.97;;;5.47;;
2848;SDS011;59355;52.416;13.412;2022-08-04T08:51:43;6.20;;;5.60;;
2848;SDS011;59355;52.416;13.412;2022-08-04T08:54:19;5.30;;;4.80;;
2848;SDS011;59355;52.416;13.412;2022-08-04T08:59:59;9.43;;;5.10;;
2848;SDS011;59355;52.416;13.412;2022-08-04T09:06:13;5.07;;;4.57;;
2848;SDS011;59355;52.416;13.412;2022-08-04T09:10:54;5.60;;;5.07;;
2848;SDS011;59355;52.416;13.412;2022-08-04T09:13:32;5.20;;;4.80;;
2848;SDS011;59355;52.416;13.412;2022-08-04T09:16:05;4.77;;;4.37;;
2848;SDS011;59355;52.416;13.412;2022-08-04T09:18:35;6.10;;;4.50;;
2848;SDS011;59355;52.416;13.412;2022-08-04T09:21:10;5.20;;;4.80;;
2848;SDS011;59355;52.416;13.412;2022-08-04T09:23:50;8.40;;;4.70;;
2848;SDS011;59355;52.416;13.412;2022-08-04T09:26:26;4.40;;;4.10;;
2848;SDS011;59355;52.416;13.412;2022-08-04T09:29:03;4.10;;;3.80;;
2848;SDS011;59355;52.416;13.412;2022-08-04T09:31:32;4.73;;;4.33;;
2848;SDS011;59355;52.416;13.412;2022-08-04T09:34:22;4.77;;;4.33;;
2848;SDS011;59355;52.416;13.412;2022-08-04T09:36:55;5.27;;;4.77;;
2848;SDS011;59355;52.416;13.412;2022-08-04T09:39:39;5.13;;;4.73;;
2848;SDS011;59355;52.416;13.412;2022-08-04T09:42:11;4.87;;;4.43;;
2848;SDS011;59355;52.416;13.412;2022-08-04T09:44:51;4.90;;;4.50;;
2848;SDS011;59355;52.416;13.412;2022-08-04T09:50:02;4.40;;;4.10;;
2848;SDS011;59355;52.416;13.412;2022-08-04T09:55:17;5.20;;;4.70;;
2848;SDS011;59355;52.416;13.412;2022-08-04T09:58:04;6.70;;;5.20;;
2848;SDS011;59355;52.416;13.412;2022-08-04T10:00:33;4.50;;;4.10;;
2848;SDS011;59355;52.416;13.412;2022-08-04T10:03:01;5.90;;;3.57;;
2848;SDS011;59355;52.416;13.412;2022-08-04T10:05:38;4.20;;;3.90;;
2848;SDS011;59355;52.416;13.412;2022-08-04T10:08:12;4.93;;;4.43;;
2848;SDS011;59355;52.416;13.412;2022-08-04T10:19:27;3.90;;;3.60;;
2848;SDS011;59355;52.416;13.412;2022-08-04T10:22:16;4.83;;;4.30;;
2848;SDS011;59355;52.416;13.412;2022-08-04T10:24:49;4.57;;;4.17;;
2848;SDS011;59355;52.416;13.412;2022-08-04T10:27:27;4.30;;;3.90;;
2848;SDS011;59355;52.416;13.412;2022-08-04T10:29:56;4.60;;;3.90;;
2848;SDS011;59355;52.416;13.412;2022-08-04T10:40:17;4.77;;;4.27;;
2848;SDS011;59355;52.416;13.412;2022-08-04T10:43:02;3.80;;;3.50;;
2848;SDS011;59355;52.416;13.412;2022-08-04T10:45:46;4.33;;;4.03;;
2848;SDS011;59355;52.416;13.412;2022-08-04T10:48:18;5.53;;;4.97;;
2848;SDS011;59355;52.416;13.412;2022-08-04T10:50:52;4.47;;;4.17;;
2848;SDS011;59355;52.416;13.412;2022-08-04T10:53:22;5.63;;;4.63;;
2848;SDS011;59355;52.416;13.412;2022-08-04T10:55:58;4.37;;;4.00;;
2848;SDS011;59355;52.416;13.412;2022-08-04T10:58:29;5.53;;;5.03;;
2848;SDS011;59355;52.416;13.412;2022-08-04T11:00:58;4.53;;;4.23;;
2848;SDS011;59355;52.416;13.412;2022-08-04T11:04:03;5.20;;;4.40;;
2848;SDS011;59355;52.416;13.412;2022-08-04T11:06:20;4.90;;;4.50;;
2848;SDS011;59355;52.416;13.412;2022-08-04T11:08:49;3.80;;;3.27;;
2848;SDS011;59355;52.416;13.412;2022-08-04T11:11:30;4.03;;;3.70;;
2848;SDS011;59355;52.416;13.412;2022-08-04T11:16:38;5.10;;;4.20;;
2848;SDS011;59355;52.416;13.412;2022-08-04T11:19:16;4.13;;;3.80;;
2848;SDS011;59355;52.416;13.412;2022-08-04T11:21:53;4.33;;;4.03;;
2848;SDS011;59355;52.416;13.412;2022-08-04T11:24:35;4.13;;;3.83;;
2848;SDS011;59355;52.416;13.412;2022-08-04T11:27:07;4.63;;;4.23;;
2848;SDS011;59355;52.416;13.412;2022-08-04T11:29:46;3.93;;;3.53;;
2848;SDS011;59355;52.416;13.412;2022-08-04T11:32:19;3.93;;;3.63;;
2848;SDS011;59355;52.416;13.412;2022-08-04T11:34:47;3.83;;;3.53;;
2848;SDS011;59355;52.416;13.412;2022-08-04T11:37:16;4.10;;;3.80;;
2848;SDS011;59355;52.416;13.412;2022-08-04T11:39:44;3.53;;;3.23;;
2848;SDS011;59355;52.416;13.412;2022-08-04T11:44:47;4.40;;;4.00;;
2848;SDS011;59355;52.416;13.412;2022-08-04T11:49:53;5.60;;;4.10;;
2848;SDS011;59355;52.416;13.412;2022-08-04T11:52:21;4.93;;;4.43;;
2848;SDS011;59355;52.416;13.412;2022-08-04T11:54:48;3.97;;;3.60;;
2848;SDS011;59355;52.416;13.412;2022-08-04T11:57:14;4.30;;;3.90;;
2848;SDS011;59355;52.416;13.412;2022-08-04T11:59:41;4.70;;;3.33;;
2848;SDS011;59355;52.416;13.412;2022-08-04T12:05:05;3.80;;;3.50;;
2848;SDS011;59355;52.416;13.412;2022-08-04T12:07:44;4.30;;;3.90;;
2848;SDS011;59355;52.416;13.412;2022-08-04T12:10:29;7.33;;;3.90;;
2848;SDS011;59355;52.416;13.412;2022-08-04T12:13:05;4.00;;;3.70;;
2848;SDS011;59355;52.416;13.412;2022-08-04T12:18:19;4.00;;;3.70;;
2848;SDS011;59355;52.416;13.412;2022-08-04T12:20:50;3.53;;;3.23;;
2848;SDS011;59355;52.416;13.412;2022-08-04T12:23:21;4.43;;;4.03;;
2848;SDS011;59355;52.416;13.412;2022-08-04T12:25:49;3.27;;;2.97;;
2848;SDS011;59355;52.416;13.412;2022-08-04T12:28:21;5.17;;;3.40;;
2848;SDS011;59355;52.416;13.412;2022-08-04T12:30:50;5.63;;;3.30;;
2848;SDS011;59355;52.416;13.412;2022-08-04T12:33:19;6.40;;;3.50;;
2848;SDS011;59355;52.416;13.412;2022-08-04T12:35:50;4.30;;;3.30;;
2848;SDS011;59355;52.416;13.412;2022-08-04T12:38:18;3.87;;;3.43;;
2848;SDS011;59355;52.416;13.412;2022-08-04T12:40:50;3.37;;;3.07;;
2848;SDS011;59355;52.416;13.412;2022-08-04T12:45:53;4.60;;;3.43;;
2848;SDS011;59355;52.416;13.412;2022-08-04T12:48:20;3.37;;;3.07;;
2848;SDS011;59355;52.416;13.412;2022-08-04T12:50:49;3.40;;;3.10;;
2848;SDS011;59355;52.416;13.412;2022-08-04T12:53:15;5.03;;;3.13;;
2848;SDS011;59355;52.416;13.412;2022-08-04T12:55:44;3.03;;;2.83;;
2848;SDS011;59355;52.416;13.412;2022-08-04T12:58:14;3.63;;;3.33;;
2848;SDS011;59355;52.416;13.412;2022-08-04T13:00:41;5.50;;;3.23;;
2848;SDS011;59355;52.416;13.412;2022-08-04T13:03:08;3.80;;;3.03;;
2848;SDS011;59355;52.416;13.412;2022-08-04T13:05:36;3.47;;;3.10;;
2848;SDS011;59355;52.416;13.412;2022-08-04T13:08:04;3.83;;;3.50;;
2848;SDS011;59355;52.416;13.412;2022-08-04T13:10:31;3.30;;;3.10;;
2848;SDS011;59355;52.416;13.412;2022-08-04T13:13:02;3.60;;;3.30;;
2848;SDS011;59355;52.416;13.412;2022-08-04T13:15:28;3.70;;;3.17;;
2848;SDS011;59355;52.416;13.412;2022-08-04T13:17:59;4.03;;;3.10;;
2848;SDS011;59355;52.416;13.412;2022-08-04T13:20:31;4.37;;;2.67;;
2848;SDS011;59355;52.416;13.412;2022-08-04T13:22:58;3.23;;;2.93;;
2848;SDS011;59355;52.416;13.412;2022-08-04T13:25:28;2.90;;;2.70;;
2848;SDS011;59355;52.416;13.412;2022-08-04T13:27:55;5.90;;;3.13;;
2848;SDS011;59355;52.416;13.412;2022-08-04T13:30:22;3.47;;;3.20;;
2848;SDS011;59355;52.416;13.412;2022-08-04T13:32:54;3.03;;;2.80;;
2848;SDS011;59355;52.416;13.412;2022-08-04T13:35:20;3.40;;;3.07;;
2848;SDS011;59355;52.416;13.412;2022-08-04T13:37:48;3.20;;;2.90;;
2848;SDS011;59355;52.416;13.412;2022-08-04T13:40:15;2.60;;;2.40;;
2848;SDS011;59355;52.416;13.412;2022-08-04T13:42:44;5.73;;;2.90;;
2848;SDS011;59355;52.416;13.412;2022-08-04T13:45:11;3.60;;;2.70;;
2848;SDS011;59355;52.416;13.412;2022-08-04T13:47:38;2.97;;;2.73;;
2848;SDS011;59355;52.416;13.412;2022-08-04T13:50:06;3.40;;;3.10;;
2848;SDS011;59355;52.416;13.412;2022-08-04T13:52:33;4.17;;;2.20;;
2848;SDS011;59355;52.416;13.412;2022-08-04T13:55:00;3.20;;;2.90;;
2848;SDS011;59355;52.416;13.412;2022-08-04T13:57:28;2.93;;;2.50;;
2848;SDS011;59355;52.416;13.412;2022-08-04T14:00:00;2.90;;;2.40;;
2848;SDS011;59355;52.416;13.412;2022-08-04T14:04:54;2.60;;;2.23;;
2848;SDS011;59355;52.416;13.412;2022-08-04T14:07:22;2.80;;;2.60;;
2848;SDS011;59355;52.416;13.412;2022-08-04T14:09:50;3.03;;;2.73;;
2848;SDS011;59355;52.416;13.412;2022-08-04T14:12:16;2.67;;;2.33;;
2848;SDS011;59355;52.416;13.412;2022-08-04T14:14:47;3.50;;;2.70;;
2848;SDS011;59355;52.416;13.412;2022-08-04T14:17:15;2.40;;;2.20;;
2848;SDS011;59355;52.416;13.412;2022-08-04T14:25:12;3.83;;;2.50;;
2848;SDS011;59355;52.416;13.412;2022-08-04T14:32:57;3.13;;;2.57;;
2848;SDS011;59355;52.416;13.412;2022-08-04T14:35:24;7.27;;;3.30;;
2848;SDS011;59355;52.416;13.412;2022-08-04T14:37:51;2.87;;;2.67;;
2848;SDS011;59355;52.416;13.412;2022-08-04T14:40:22;2.60;;;2.38;;
2848;SDS011;59355;52.416;13.412;2022-08-04T14:42:50;5.97;;;2.55;;
2848;SDS011;59355;52.416;13.412;2022-08-04T14:45:16;3.70;;;2.53;;
2848;SDS011;59355;52.416;13.412;2022-08-04T14:47:43;3.20;;;2.38;;
2848;SDS011;59355;52.416;13.412;2022-08-04T14:50:10;2.53;;;2.28;;
2848;SDS011;59355;52.416;13.412;2022-08-04T14:52:37;2.35;;;2.15;;
2848;SDS011;59355;52.416;13.412;2022-08-04T14:57:42;2.45;;;2.25;;
2848;SDS011;59355;52.416;13.412;2022-08-04T15:00:09;3.85;;;2.20;;
2848;SDS011;59355;52.416;13.412;2022-08-04T15:02:37;3.15;;;2.88;;
2848;SDS011;59355;52.416;13.412;2022-08-04T15:05:05;2.33;;;2.13;;
2848;SDS011;59355;52.416;13.412;2022-08-04T15:07:31;5.97;;;2.97;;
2848;SDS011;59355;52.416;13.412;2022-08-04T15:09:58;2.50;;;2.30;;
2848;SDS011;59355;52.416;13.412;2022-08-04T15:12:24;2.42;;;2.22;;
2848;SDS011;59355;52.416;13.412;2022-08-04T15:14:51;5.35;;;2.50;;
2848;SDS011;59355;52.416;13.412;2022-08-04T15:17:18;2.15;;;1.95;;
2848;SDS011;59355;52.416;13.412;2022-08-04T15:19:44;3.10;;;2.30;;
2848;SDS011;59355;52.416;13.412;2022-08-04T15:22:10;2.20;;;2.00;;
2848;SDS011;59355;52.416;13.412;2022-08-04T15:24:37;2.78;;;2.58;;
2848;SDS011;59355;52.416;13.412;2022-08-04T15:27:04;3.47;;;2.70;;
2848;SDS011;59355;52.416;13.412;2022-08-04T15:29:35;2.47;;;2.28;;
2848;SDS011;59355;52.416;13.412;2022-08-04T15:32:03;2.25;;;2.05;;
2848;SDS011;59355;52.416;13.412;2022-08-04T15:34:46;2.58;;;2.38;;
2848;SDS011;59355;52.416;13.412;2022-08-04T15:37:15;6.45;;;2.45;;
2848;SDS011;59355;52.416;13.412;2022-08-04T15:39:44;3.42;;;2.20;;
2848;SDS011;59355;52.416;13.412;2022-08-04T15:50:30;2.67;;;2.47;;
2848;SDS011;59355;52.416;13.412;2022-08-04T16:02:41;2.50;;;2.30;;
2848;SDS011;59355;52.416;13.412;2022-08-04T16:13:03;2.38;;;2.17;;
2848;SDS011;59355;52.416;13.412;2022-08-04T16:15:40;2.55;;;2.22;;
2848;SDS011;59355;52.416;13.412;2022-08-04T16:18:07;2.38;;;2.17;;
2848;SDS011;59355;52.416;13.412;2022-08-04T16:20:34;2.65;;;2.42;;
2848;SDS011;59355;52.416;13.412;2022-08-04T16:25:53;2.38;;;2.08;;
2848;SDS011;59355;52.416;13.412;2022-08-04T16:31:05;2.33;;;2.00;;
2848;SDS011;59355;52.416;13.412;2022-08-04T16:33:32;2.60;;;2.20;;
2848;SDS011;59355;52.416;13.412;2022-08-04T16:35:59;2.42;;;1.80;;
2848;SDS011;59355;52.416;13.412;2022-08-04T16:38:26;2.63;;;1.98;;
2848;SDS011;59355;52.416;13.412;2022-08-04T16:40:56;3.78;;;2.17;;
2848;SDS011;59355;52.416;13.412;2022-08-04T16:43:26;2.30;;;2.10;;
2848;SDS011;59355;52.416;13.412;2022-08-04T16:45:57;2.00;;;1.90;;
2848;SDS011;59355;52.416;13.412;2022-08-04T16:48:31;2.38;;;2.15;;
2848;SDS011;59355;52.416;13.412;2022-08-04T16:51:09;2.20;;;2.00;;
2848;SDS011;59355;52.416;13.412;2022-08-04T16:53:43;2.80;;;2.60;;
2848;SDS011;59355;52.416;13.412;2022-08-04T16:56:10;2.67;;;1.90;;
2848;SDS011;59355;52.416;13.412;2022-08-04T16:58:39;2.65;;;2.45;;
2848;SDS011;59355;52.416;13.412;2022-08-04T17:01:12;2.60;;;2.20;;
2848;SDS011;59355;52.416;13.412;2022-08-04T17:03:40;2.70;;;2.28;;
2848;SDS011;59355;52.416;13.412;2022-08-04T17:06:14;2.20;;;2.00;;
2848;SDS011;59355;52.416;13.412;2022-08-04T17:08:41;4.95;;;2.05;;
2848;SDS011;59355;52.416;13.412;2022-08-04T17:11:07;2.40;;;2.20;;
2848;SDS011;59355;52.416;13.412;2022-08-04T17:13:36;2.50;;;2.30;;
2848;SDS011;59355;52.416;13.412;2022-08-04T17:16:03;2.47;;;2.28;;
2848;SDS011;59355;52.416;13.412;2022-08-04T17:18:31;2.40;;;2.13;;
2848;SDS011;59355;52.416;13.412;2022-08-04T17:21:03;3.27;;;2.70;;
2848;SDS011;59355;52.416;13.412;2022-08-04T17:23:34;2.40;;;2.20;;
2848;SDS011;59355;52.416;13.412;2022-08-04T17:26:05;2.63;;;2.43;;
2848;SDS011;59355;52.416;13.412;2022-08-04T17:28:32;3.03;;;2.27;;
2848;SDS011;59355;52.416;13.412;2022-08-04T17:30:59;3.03;;;2.30;;
2848;SDS011;59355;52.416;13.412;2022-08-04T17:33:26;2.40;;;2.20;;
2848;SDS011;59355;52.416;13.412;2022-08-04T17:35:56;2.23;;;2.03;;
2848;SDS011;59355;52.416;13.412;2022-08-04T17:38:37;4.43;;;2.67;;
2848;SDS011;59355;52.416;13.412;2022-08-04T17:41:05;3.10;;;2.80;;
2848;SDS011;59355;52.416;13.412;2022-08-04T17:43:35;6.77;;;2.83;;
2848;SDS011;59355;52.416;13.412;2022-08-04T17:48:44;4.30;;;2.67;;
2848;SDS011;59355;52.416;13.412;2022-08-04T17:51:12;2.30;;;2.10;;
2848;SDS011;59355;52.416;13.412;2022-08-04T17:53:38;3.90;;;2.50;;
2848;SDS011;59355;52.416;13.412;2022-08-04T17:56:05;2.63;;;2.43;;
2848;SDS011;59355;52.416;13.412;2022-08-04T17:58:31;3.10;;;2.70;;
2848;SDS011;59355;52.416;13.412;2022-08-04T18:00:58;3.93;;;2.47;;
2848;SDS011;59355;52.416;13.412;2022-08-04T18:03:24;8.60;;;2.97;;
2848;SDS011;59355;52.416;13.412;2022-08-04T18:05:51;3.10;;;2.77;;
2848;SDS011;59355;52.416;13.412;2022-08-04T18:08:24;5.43;;;2.53;;
2848;SDS011;59355;52.416;13.412;2022-08-04T18:10:53;2.87;;;2.37;;
2848;SDS011;59355;52.416;13.412;2022-08-04T18:13:20;2.93;;;2.73;;
2848;SDS011;59355;52.416;13.412;2022-08-04T18:15:46;3.47;;;2.97;;
2848;SDS011;59355;52.416;13.412;2022-08-04T18:18:17;3.63;;;2.73;;
2848;SDS011;59355;52.416;13.412;2022-08-04T18:20:44;2.60;;;2.40;;